YMX weather

Montreal International (Mirabel) Airport
Montréal, Quebec, Canada

Public forecast

Using degrees Celsius for public forecast. Weather courtesy of forecast.io.

Current aviation weather report (METAR) for Montreal International (Mirabel) Airport

Retrieved 2019/10/17 00:00 UTC (10 minutes ago):

CYMX 170000Z 09006KT 15SM -RA OVC065 11/08 A2961 RMK SC8 SLP030

Aviation forecast (TAF) for Montreal International (Mirabel) Airport

Retrieved 2019-10-17 00:42 UTC (0 seconds ago):

TAF CYMX 162339Z 1700/1724 10008KT P6SM -RA OVC060 TEMPO 1700/1703 6SM -RA BR OVC040 FM170300 06010G20KT 6SM -RA BR SCT010 OVC030 TEMPO 1703/1705 4SM RA BR BKN010 OVC030 FM170500 05010G20KT 6SM -RA BR OVC030 TEMPO 1705/1709 3SM -RA BR BKN008 OVC020 FM170900 05010G20KT 3SM RA BR OVC008 TEMPO 1709/1717 6SM -RA SCT008 OVC015 BECMG 1712/1714 01015G25KT FM171700 36015G25KT 4SM -RA BR BKN015 OVC030 BECMG 1722/1724 34012G22KT RMK NXT FCST BY 170600Z